createdAt,value
2023-07-22T00:02:15.009Z,201.67
2023-07-22T00:04:43.071Z,188.50
2023-07-22T00:07:11.184Z,202.10
2023-07-22T00:09:39.956Z,192.20
2023-07-22T00:12:08.790Z,195.27
2023-07-22T00:14:41.836Z,194.93
2023-07-22T00:17:10.333Z,200.30
2023-07-22T00:19:38.397Z,176.13
2023-07-22T00:22:06.531Z,196.30
2023-07-22T00:24:34.864Z,195.83
2023-07-22T00:27:03.013Z,199.17
2023-07-22T00:29:31.117Z,200.57
2023-07-22T00:32:00.572Z,202.10
2023-07-22T00:34:28.668Z,187.23
2023-07-22T00:36:56.758Z,209.37
2023-07-22T00:39:24.894Z,209.33
2023-07-22T00:41:53.015Z,202.00
2023-07-22T00:44:21.154Z,201.40
2023-07-22T00:46:49.309Z,197.13
2023-07-22T00:49:19.393Z,192.73
2023-07-22T00:51:47.493Z,212.23
2023-07-22T00:54:16.196Z,194.67
2023-07-22T00:56:45.478Z,213.03
2023-07-22T00:59:14.627Z,198.03
2023-07-22T01:01:43.104Z,201.13
2023-07-22T01:04:11.667Z,218.50
2023-07-22T01:06:41.216Z,201.07
2023-07-22T01:09:10.346Z,193.70
2023-07-22T01:11:38.528Z,204.57
2023-07-22T01:14:06.626Z,205.10
2023-07-22T01:16:34.730Z,218.13
2023-07-22T01:19:03.011Z,223.27
2023-07-22T01:21:31.842Z,213.83
2023-07-22T01:24:01.693Z,219.10
2023-07-22T01:26:29.789Z,227.83
2023-07-22T01:29:05.305Z,218.77
2023-07-22T01:31:33.487Z,215.33
2023-07-22T01:34:01.563Z,217.70
2023-07-22T01:36:29.689Z,210.20
2023-07-22T01:38:57.781Z,207.10
2023-07-22T01:41:28.605Z,222.93
2023-07-22T01:43:56.741Z,231.13
2023-07-22T01:46:25.161Z,212.40
2023-07-22T01:48:53.646Z,216.80
2023-07-22T01:51:21.743Z,219.70
2023-07-22T01:53:50.732Z,211.27
2023-07-22T01:56:19.339Z,220.80
2023-07-22T01:58:48.852Z,211.50
2023-07-22T02:01:17.426Z,221.73
2023-07-22T02:03:46.628Z,214.83
2023-07-22T02:06:14.791Z,225.70
2023-07-22T02:08:43.016Z,212.50
2023-07-22T02:11:11.096Z,216.93
2023-07-22T02:13:39.508Z,209.27
2023-07-22T02:16:12.629Z,218.13
2023-07-22T02:18:41.008Z,194.70
2023-07-22T02:21:09.086Z,206.80
2023-07-22T02:23:37.134Z,211.47
2023-07-22T02:26:05.399Z,214.00
2023-07-22T02:28:34.219Z,211.83
2023-07-22T02:31:05.235Z,212.17
2023-07-22T02:33:34.664Z,197.60
2023-07-22T02:36:02.750Z,212.20
2023-07-22T02:38:30.851Z,197.20
2023-07-22T02:41:04.493Z,189.03
2023-07-22T02:43:32.591Z,187.07
2023-07-22T02:46:03.419Z,203.30
2023-07-22T02:48:32.440Z,192.37
2023-07-22T02:51:06.655Z,195.00
2023-07-22T02:53:34.976Z,199.23
2023-07-22T02:56:03.475Z,193.47
2023-07-22T02:58:31.578Z,192.53
2023-07-22T03:01:00.002Z,189.87
2023-07-22T03:03:28.308Z,179.60
2023-07-22T03:05:56.411Z,177.07
2023-07-22T03:08:26.231Z,180.70
2023-07-22T03:10:54.357Z,188.03
2023-07-22T03:13:22.556Z,179.83
2023-07-22T03:15:50.836Z,188.20
2023-07-22T03:18:18.996Z,180.70
2023-07-22T03:20:47.173Z,180.37
2023-07-22T03:23:15.236Z,184.30
2023-07-22T03:25:44.660Z,176.17
2023-07-22T03:28:14.456Z,179.23
2023-07-22T03:30:42.597Z,175.53
2023-07-22T03:33:11.587Z,188.20
2023-07-22T03:35:39.820Z,180.93
2023-07-22T03:38:10.342Z,178.27
2023-07-22T03:40:39.214Z,178.00
2023-07-22T03:43:08.779Z,167.57
2023-07-22T03:45:36.984Z,178.23
2023-07-22T03:48:05.340Z,181.60
2023-07-22T03:50:33.617Z,182.03
2023-07-22T03:53:01.691Z,186.23
2023-07-22T03:55:29.733Z,180.97
2023-07-22T03:57:57.829Z,186.47
2023-07-22T04:00:27.298Z,187.40
2023-07-22T04:02:55.448Z,178.40
2023-07-22T04:05:23.629Z,190.73
2023-07-22T04:07:51.838Z,193.50
2023-07-22T04:10:20.050Z,202.03
2023-07-22T04:12:48.172Z,203.20
2023-07-22T04:15:16.533Z,226.53
2023-07-22T04:17:46.087Z,210.90
2023-07-22T04:20:14.228Z,200.87
2023-07-22T04:22:42.495Z,220.03
2023-07-22T04:25:11.246Z,226.03
2023-07-22T04:27:39.542Z,205.20
2023-07-22T04:30:08.917Z,204.57
2023-07-22T04:32:37.071Z,210.10
2023-07-22T04:35:07.949Z,201.07
2023-07-22T04:37:36.596Z,201.70
2023-07-22T04:40:09.650Z,209.43
2023-07-22T04:42:37.840Z,209.90
2023-07-22T04:45:07.461Z,198.43
2023-07-22T04:47:35.548Z,203.73
2023-07-22T04:50:04.206Z,209.77
2023-07-22T04:52:33.616Z,196.17
2023-07-22T04:55:01.690Z,214.17
2023-07-22T04:57:29.814Z,202.07
2023-07-22T04:59:57.913Z,215.20
2023-07-22T05:02:26.093Z,217.90
2023-07-22T05:04:54.263Z,206.00
2023-07-22T05:07:22.638Z,199.53
2023-07-22T05:09:52.518Z,200.73
2023-07-22T05:12:20.755Z,223.07
2023-07-22T05:14:48.850Z,208.63
2023-07-22T05:17:17.085Z,209.37
2023-07-22T05:19:45.612Z,211.93
2023-07-22T05:22:13.730Z,241.27
2023-07-22T05:24:41.810Z,206.03
2023-07-22T05:27:11.224Z,211.63
2023-07-22T05:29:39.300Z,222.60
2023-07-22T05:32:16.990Z,201.77
2023-07-22T05:34:55.859Z,212.57
2023-07-22T05:37:23.973Z,212.57
2023-07-22T05:39:52.082Z,227.83
2023-07-22T05:42:21.555Z,219.87
2023-07-22T05:44:50.290Z,219.83
2023-07-22T05:47:19.432Z,245.23
2023-07-22T05:49:47.858Z,217.43
2023-07-22T05:52:15.949Z,239.53
2023-07-22T05:54:44.002Z,226.37
2023-07-22T05:57:12.104Z,242.20
2023-07-22T05:59:41.685Z,230.57
2023-07-22T06:02:11.526Z,255.13
2023-07-22T06:04:40.101Z,240.13
2023-07-22T06:07:08.227Z,248.27
2023-07-22T06:09:36.812Z,269.57
2023-07-22T06:12:05.501Z,274.63
2023-07-22T06:14:33.824Z,275.70
2023-07-22T06:17:03.621Z,265.17
2023-07-22T06:19:31.821Z,263.97
2023-07-22T06:21:59.845Z,262.57
2023-07-22T06:24:27.971Z,276.47
2023-07-22T06:26:56.099Z,266.13
2023-07-22T06:29:24.269Z,265.77
2023-07-22T06:31:52.426Z,267.40
2023-07-22T06:34:21.970Z,254.90
2023-07-22T06:36:50.273Z,247.50
2023-07-22T06:39:18.333Z,258.23
2023-07-22T06:41:46.350Z,242.17
2023-07-22T06:44:14.433Z,259.20
2023-07-22T06:46:44.924Z,257.20
2023-07-22T06:49:13.218Z,265.37
2023-07-22T06:51:42.832Z,289.37
2023-07-22T06:54:10.930Z,268.07
2023-07-22T06:56:39.049Z,279.97
2023-07-22T06:59:07.181Z,262.17
2023-07-22T07:01:37.904Z,277.17
2023-07-22T07:04:06.609Z,265.20
2023-07-22T07:06:34.892Z,276.40
2023-07-22T07:09:04.740Z,284.30
2023-07-22T07:11:32.808Z,277.20
2023-07-22T07:14:01.159Z,278.57
2023-07-22T07:16:30.817Z,290.07
2023-07-22T07:18:59.794Z,288.17
2023-07-22T07:21:28.271Z,287.30
2023-07-22T07:23:57.132Z,286.50
2023-07-22T07:26:26.721Z,296.10
2023-07-22T07:28:55.407Z,293.00
2023-07-22T07:31:23.568Z,290.07
2023-07-22T07:33:52.351Z,304.83
2023-07-22T07:36:20.401Z,304.97
2023-07-22T07:38:48.588Z,305.67
2023-07-22T07:41:16.954Z,322.83
2023-07-22T07:43:46.386Z,317.70
2023-07-22T07:46:18.700Z,316.13
2023-07-22T07:48:47.786Z,293.47
2023-07-22T07:51:16.785Z,332.27
2023-07-22T07:53:45.907Z,314.70
2023-07-22T07:56:14.161Z,310.60
2023-07-22T07:58:42.598Z,310.17
2023-07-22T08:01:12.279Z,326.43
2023-07-22T08:03:41.387Z,333.90
2023-07-22T08:06:09.531Z,341.60
2023-07-22T08:08:37.983Z,311.00
2023-07-22T08:11:08.771Z,315.93
2023-07-22T08:13:37.201Z,326.17
2023-07-22T08:16:06.441Z,327.67
2023-07-22T08:18:36.887Z,323.27
2023-07-22T08:21:06.448Z,343.53
2023-07-22T08:23:34.792Z,334.90
2023-07-22T08:26:03.099Z,330.30
2023-07-22T08:28:32.561Z,338.50
2023-07-22T08:31:01.790Z,346.17
2023-07-22T08:33:39.814Z,340.90
2023-07-22T08:36:11.280Z,353.00
2023-07-22T08:38:39.586Z,345.87
2023-07-22T08:41:08.321Z,349.37
2023-07-22T08:43:41.287Z,344.60
2023-07-22T08:46:10.034Z,343.57
2023-07-22T08:48:41.209Z,360.20
2023-07-22T08:51:14.964Z,370.53
2023-07-22T08:53:45.721Z,372.67
2023-07-22T08:56:14.293Z,382.93
2023-07-22T08:58:44.710Z,360.87
2023-07-22T09:01:13.603Z,388.73
2023-07-22T09:03:42.970Z,361.07
2023-07-22T09:06:12.874Z,356.03
2023-07-22T09:08:41.541Z,361.70
2023-07-22T09:11:09.736Z,376.67
2023-07-22T09:13:40.418Z,364.37
2023-07-22T09:16:09.145Z,395.03
2023-07-22T09:18:37.382Z,394.23
2023-07-22T09:21:05.630Z,401.37
2023-07-22T09:23:39.886Z,400.10
2023-07-22T09:26:11.761Z,410.87
2023-07-22T09:28:50.999Z,406.70
2023-07-22T09:31:19.246Z,397.73
2023-07-22T09:33:47.503Z,395.47
2023-07-22T09:36:15.626Z,389.03
2023-07-22T09:38:45.309Z,386.40
2023-07-22T09:41:14.769Z,406.37
2023-07-22T09:43:42.915Z,400.67
2023-07-22T09:48:43.950Z,408.27
2023-07-22T09:51:16.526Z,442.23
2023-07-22T09:53:50.274Z,447.70
2023-07-22T09:56:18.314Z,476.30
2023-07-22T09:58:49.354Z,482.03
2023-07-22T10:01:22.166Z,455.07
2023-07-22T10:03:55.922Z,469.70
2023-07-22T10:06:26.376Z,467.37
2023-07-22T10:08:57.790Z,471.97
2023-07-22T10:11:29.297Z,494.17
2023-07-22T10:13:58.231Z,495.90
2023-07-22T10:16:27.999Z,459.67
2023-07-22T10:18:56.502Z,479.67
2023-07-22T10:21:25.776Z,488.97
2023-07-22T10:23:56.635Z,490.30
2023-07-22T10:26:40.511Z,493.27
2023-07-22T10:29:13.490Z,486.43
2023-07-22T10:31:41.712Z,507.63
2023-07-22T10:34:10.031Z,484.13
2023-07-22T10:36:38.447Z,476.67
2023-07-22T10:39:08.638Z,480.00
2023-07-22T10:41:41.281Z,499.80
2023-07-22T10:44:13.610Z,480.87
2023-07-22T10:46:44.903Z,431.07
2023-07-22T10:49:14.266Z,482.90
2023-07-22T10:51:43.139Z,460.73
2023-07-22T10:54:15.821Z,463.00
2023-07-22T10:56:45.000Z,451.60
2023-07-22T10:59:14.112Z,476.23
2023-07-22T11:01:45.983Z,480.30
2023-07-22T11:04:36.722Z,476.50
2023-07-22T11:07:11.420Z,463.60
2023-07-22T11:09:45.494Z,472.20
2023-07-22T11:12:21.679Z,458.77
2023-07-22T11:14:51.584Z,487.80
2023-07-22T11:17:21.021Z,490.00
2023-07-22T11:19:50.352Z,494.33
2023-07-22T11:22:18.862Z,495.73
2023-07-22T11:24:48.555Z,521.30
2023-07-22T11:27:17.348Z,507.87
2023-07-22T11:29:45.523Z,497.30
2023-07-22T11:32:18.658Z,529.70
2023-07-22T11:34:47.042Z,536.90
2023-07-22T11:37:16.209Z,557.67
2023-07-22T11:39:45.629Z,542.77
2023-07-22T11:42:15.102Z,539.80
2023-07-22T11:44:43.818Z,538.13
2023-07-22T11:47:13.114Z,541.03
2023-07-22T11:49:43.160Z,527.33
2023-07-22T11:52:13.165Z,546.93
2023-07-22T11:54:43.205Z,543.33
2023-07-22T11:57:16.177Z,551.73
2023-07-22T11:59:46.964Z,549.70
2023-07-22T12:02:16.371Z,547.53
2023-07-22T12:04:44.775Z,552.17
2023-07-22T12:07:25.500Z,545.57
2023-07-22T12:09:54.451Z,545.20
2023-07-22T12:12:33.290Z,558.03
2023-07-22T12:15:06.148Z,542.70
2023-07-22T12:17:47.037Z,552.53
2023-07-22T12:20:16.053Z,562.57
2023-07-22T12:22:45.191Z,554.63
2023-07-22T12:25:13.448Z,568.43
2023-07-22T12:27:42.895Z,552.27
2023-07-22T12:30:11.378Z,567.60
2023-07-22T12:32:40.144Z,557.67
2023-07-22T12:35:09.458Z,582.47
2023-07-22T12:37:38.378Z,586.10
2023-07-22T12:40:09.626Z,595.63
2023-07-22T12:42:38.324Z,615.43
2023-07-22T12:45:09.374Z,630.90
2023-07-22T12:47:38.028Z,626.95
2023-07-22T12:50:08.955Z,632.90
2023-07-22T12:52:40.013Z,618.67
2023-07-22T12:55:08.714Z,629.20
2023-07-22T12:57:36.752Z,656.90
2023-07-22T13:00:08.748Z,660.30
2023-07-22T13:02:38.402Z,651.75
2023-07-22T13:05:07.945Z,654.33
2023-07-22T13:07:36.020Z,646.30
2023-07-22T13:10:07.915Z,647.78
2023-07-22T13:12:36.046Z,644.42
2023-07-22T13:15:04.460Z,647.28
2023-07-22T13:17:33.285Z,620.80
2023-07-22T13:20:02.753Z,643.95
2023-07-22T13:22:30.820Z,635.33
2023-07-22T13:24:58.904Z,607.77
2023-07-22T13:27:27.025Z,616.97
2023-07-22T13:29:55.098Z,606.77
2023-07-22T13:32:23.177Z,591.47
2023-07-22T13:34:51.477Z,611.60
2023-07-22T13:37:21.169Z,622.17
2023-07-22T13:39:49.182Z,605.43
2023-07-22T13:42:17.363Z,600.87
2023-07-22T13:44:45.415Z,615.17
2023-07-22T13:47:13.697Z,624.27
2023-07-22T13:49:41.721Z,621.20
2023-07-22T13:52:09.886Z,610.40
2023-07-22T13:54:39.292Z,629.03
2023-07-22T13:57:08.521Z,622.63
2023-07-22T13:59:36.786Z,622.10
2023-07-22T14:02:05.382Z,617.67
2023-07-22T14:04:33.571Z,626.03
2023-07-22T14:07:01.745Z,615.33
2023-07-22T14:09:29.882Z,592.80
2023-07-22T14:11:59.480Z,618.43
2023-07-22T14:14:29.913Z,602.50
2023-07-22T14:16:58.271Z,621.93
2023-07-22T14:19:26.754Z,613.80
2023-07-22T14:21:54.851Z,619.27
2023-07-22T14:24:23.018Z,625.73
2023-07-22T14:26:51.153Z,619.77
2023-07-22T14:29:21.884Z,636.90
2023-07-22T14:31:50.003Z,625.10
2023-07-22T14:34:18.113Z,624.63
2023-07-22T14:36:46.167Z,635.67
2023-07-22T14:39:14.241Z,649.20
2023-07-22T14:41:44.211Z,611.63
2023-07-22T14:44:12.512Z,608.77
2023-07-22T14:46:41.989Z,617.83
2023-07-22T14:49:11.010Z,646.33
2023-07-22T14:51:39.220Z,639.97
2023-07-22T14:54:07.309Z,636.67
2023-07-22T14:56:35.406Z,642.75
2023-07-22T14:59:03.511Z,657.88
2023-07-22T15:01:39.715Z,627.50
2023-07-22T15:04:09.549Z,617.57
2023-07-22T15:06:38.021Z,621.13
2023-07-22T15:09:09.669Z,614.87
2023-07-22T15:11:38.614Z,605.83
2023-07-22T15:14:07.050Z,599.60
2023-07-22T15:16:35.627Z,602.50
2023-07-22T15:19:03.796Z,573.73
2023-07-22T15:21:33.266Z,600.33
2023-07-22T15:24:01.388Z,611.40
2023-07-22T15:26:29.473Z,622.55
2023-07-22T15:28:57.591Z,624.57
2023-07-22T15:31:26.132Z,657.17
2023-07-22T15:33:54.463Z,615.53
2023-07-22T15:36:22.516Z,634.60
2023-07-22T15:38:51.910Z,630.17
2023-07-22T15:41:20.039Z,638.70
2023-07-22T15:43:48.147Z,612.13
2023-07-22T15:46:16.223Z,630.22
2023-07-22T15:48:44.469Z,647.95
2023-07-22T15:51:12.619Z,652.17
2023-07-22T15:53:40.779Z,675.10
2023-07-22T15:56:10.807Z,704.25
2023-07-22T15:58:38.877Z,734.13
2023-07-22T16:01:06.986Z,763.35
2023-07-22T16:03:36.998Z,759.92
2023-07-22T16:06:12.585Z,771.50
2023-07-22T16:08:48.240Z,784.78
2023-07-22T16:11:17.721Z,774.25
2023-07-22T16:13:45.781Z,775.50
2023-07-22T16:16:13.913Z,772.50
2023-07-22T16:18:42.014Z,792.03
2023-07-22T16:21:10.419Z,791.38
2023-07-22T16:23:38.982Z,809.10
2023-07-22T16:26:08.613Z,813.17
2023-07-22T16:28:38.064Z,823.28
2023-07-22T16:31:06.146Z,812.30
2023-07-22T16:33:34.287Z,830.55
2023-07-22T16:36:02.432Z,829.50
2023-07-22T16:38:30.472Z,827.90
2023-07-22T16:40:58.537Z,831.42
2023-07-22T16:43:26.578Z,828.05
2023-07-22T16:45:56.098Z,832.70
2023-07-22T16:48:24.273Z,841.15
2023-07-22T16:50:52.332Z,845.40
2023-07-22T16:53:20.399Z,854.88
2023-07-22T16:55:48.625Z,853.10
2023-07-22T16:58:16.719Z,840.22
2023-07-22T17:00:48.694Z,848.67
2023-07-22T17:03:18.516Z,831.03
2023-07-22T17:05:46.687Z,804.50
2023-07-22T17:08:14.724Z,788.50
2023-07-22T17:10:42.765Z,771.53
2023-07-22T17:13:10.932Z,762.67
2023-07-22T17:15:39.245Z,744.42
2023-07-22T17:18:08.639Z,720.72
2023-07-22T17:20:38.123Z,718.85
2023-07-22T17:23:06.120Z,707.50
2023-07-22T17:25:34.292Z,691.83
2023-07-22T17:28:02.370Z,697.28
2023-07-22T17:30:30.533Z,696.70
2023-07-22T17:32:58.615Z,680.40
2023-07-22T17:35:26.686Z,676.72
2023-07-22T17:37:56.098Z,673.17
2023-07-22T17:40:26.734Z,675.83
2023-07-22T17:42:56.136Z,667.67
2023-07-22T17:45:24.538Z,683.88
2023-07-22T17:47:53.829Z,669.22
2023-07-22T17:50:22.715Z,664.67
2023-07-22T17:52:50.759Z,650.40
2023-07-22T17:55:20.388Z,672.45
2023-07-22T17:57:54.457Z,683.40
2023-07-22T18:00:22.751Z,676.13
2023-07-22T18:02:51.029Z,665.97
2023-07-22T18:05:19.359Z,647.60
2023-07-22T18:07:47.422Z,657.60
2023-07-22T18:10:15.537Z,668.72
2023-07-22T18:12:44.983Z,654.50
2023-07-22T18:15:13.103Z,656.65
2023-07-22T18:17:41.236Z,650.30
2023-07-22T18:20:10.288Z,651.10
2023-07-22T18:22:38.456Z,640.72
2023-07-22T18:25:08.089Z,637.13
2023-07-22T18:27:36.183Z,619.47
2023-07-22T18:30:06.309Z,608.60
2023-07-22T18:32:34.618Z,600.90
2023-07-22T18:35:02.730Z,609.83
2023-07-22T18:37:31.040Z,593.33
2023-07-22T18:39:59.097Z,581.43
2023-07-22T18:42:27.178Z,566.77
2023-07-22T18:44:57.748Z,547.00
2023-07-22T18:47:27.521Z,560.67
2023-07-22T18:49:55.646Z,546.20
2023-07-22T18:52:23.834Z,538.03
2023-07-22T18:54:51.874Z,523.70
2023-07-22T18:57:20.035Z,526.83
2023-07-22T18:59:48.068Z,539.73
2023-07-22T19:02:16.281Z,514.50
2023-07-22T19:04:45.945Z,526.03
2023-07-22T19:07:14.020Z,512.00
2023-07-22T19:09:42.257Z,485.73
2023-07-22T19:12:10.387Z,508.47
2023-07-22T19:14:38.888Z,512.27
2023-07-22T19:17:07.415Z,484.93
2023-07-22T19:19:35.524Z,491.97
2023-07-22T19:22:05.393Z,495.10
2023-07-22T19:24:33.503Z,482.00
2023-07-22T19:27:02.189Z,445.23
2023-07-22T19:29:31.393Z,463.00
2023-07-22T19:31:59.613Z,447.33
2023-07-22T19:34:27.832Z,443.50
2023-07-22T19:36:55.958Z,467.57
2023-07-22T19:39:25.361Z,440.43
2023-07-22T19:41:53.587Z,451.60
2023-07-22T19:44:21.678Z,445.30
2023-07-22T19:46:49.839Z,433.97
2023-07-22T19:49:17.930Z,452.10
2023-07-22T19:51:46.063Z,450.63
2023-07-22T19:54:14.086Z,432.30
2023-07-22T19:56:43.533Z,450.43
2023-07-22T19:59:11.590Z,433.90
2023-07-22T20:01:41.227Z,433.23
2023-07-22T20:04:09.355Z,418.10
2023-07-22T20:06:37.496Z,428.60
2023-07-22T20:09:05.778Z,431.30
2023-07-22T20:11:33.882Z,414.17
2023-07-22T20:14:05.721Z,425.93
2023-07-22T20:16:34.178Z,410.97
2023-07-22T20:19:02.347Z,407.00
2023-07-22T20:21:30.910Z,416.13
2023-07-22T20:23:58.982Z,416.10
2023-07-22T20:26:27.109Z,416.87
2023-07-22T20:28:55.173Z,425.70
2023-07-22T20:31:24.788Z,402.00
2023-07-22T20:33:53.016Z,415.90
2023-07-22T20:36:21.049Z,415.60
2023-07-22T20:38:49.089Z,401.03
2023-07-22T20:41:18.680Z,396.20
2023-07-22T20:43:47.965Z,419.80
2023-07-22T20:46:16.091Z,402.70
2023-07-22T20:48:45.557Z,405.17
2023-07-22T20:51:17.669Z,391.17
2023-07-22T20:53:45.799Z,405.23
2023-07-22T20:56:13.862Z,413.67
2023-07-22T20:58:41.992Z,404.23
2023-07-22T21:01:10.146Z,428.80
2023-07-22T21:03:38.392Z,402.40
2023-07-22T21:06:07.858Z,425.30
2023-07-22T21:08:36.857Z,389.23
2023-07-22T21:11:04.913Z,397.43
2023-07-22T21:13:33.010Z,383.20
2023-07-22T21:16:01.144Z,400.60
2023-07-22T21:18:29.259Z,398.43
2023-07-22T21:20:57.430Z,393.03
2023-07-22T21:23:26.901Z,389.23
2023-07-22T21:25:58.356Z,411.13
2023-07-22T21:28:26.606Z,382.10
2023-07-22T21:30:56.957Z,403.53
2023-07-22T21:33:25.130Z,383.33
2023-07-22T21:35:53.975Z,386.43
2023-07-22T21:38:22.595Z,390.07
2023-07-22T21:40:53.062Z,380.30
2023-07-22T21:43:21.705Z,367.60
2023-07-22T21:45:50.535Z,386.83
2023-07-22T21:48:18.714Z,395.60
2023-07-22T21:50:46.895Z,391.63
2023-07-22T21:53:15.209Z,369.67
2023-07-22T21:55:43.288Z,389.13
2023-07-22T21:58:12.745Z,358.83
2023-07-22T22:00:40.904Z,378.87
2023-07-22T22:03:11.078Z,375.97
2023-07-22T22:05:39.775Z,374.80
2023-07-22T22:08:07.963Z,378.63
2023-07-22T22:10:37.634Z,362.40
2023-07-22T22:13:05.984Z,385.03
2023-07-22T22:15:35.421Z,391.63
2023-07-22T22:18:03.632Z,375.53
2023-07-22T22:20:31.757Z,373.83
2023-07-22T22:23:00.143Z,382.70
2023-07-22T22:25:28.223Z,361.50
2023-07-22T22:27:56.311Z,375.27
2023-07-22T22:30:24.535Z,369.40
2023-07-22T22:32:53.992Z,367.70
2023-07-22T22:35:22.111Z,368.97
2023-07-22T22:37:50.179Z,359.47
2023-07-22T22:40:18.396Z,368.83
2023-07-22T22:42:46.507Z,364.83
2023-07-22T22:45:14.827Z,384.87
2023-07-22T22:47:43.009Z,375.80
2023-07-22T22:50:12.517Z,364.87
2023-07-22T22:52:40.591Z,367.73
2023-07-22T22:55:09.260Z,360.03
2023-07-22T22:57:37.345Z,355.10
2023-07-22T23:00:06.662Z,371.47
2023-07-22T23:02:38.081Z,382.33
2023-07-22T23:05:07.278Z,357.53
2023-07-22T23:07:36.818Z,387.27
2023-07-22T23:10:06.913Z,364.97
2023-07-22T23:12:38.243Z,366.10
2023-07-22T23:15:07.854Z,354.53
2023-07-22T23:17:35.890Z,362.07
2023-07-22T23:20:05.149Z,369.60
2023-07-22T23:22:33.330Z,329.80
2023-07-22T23:25:02.899Z,366.43
2023-07-22T23:27:31.762Z,366.63
2023-07-22T23:29:59.939Z,356.60
2023-07-22T23:32:28.031Z,357.80
2023-07-22T23:34:58.392Z,346.57
2023-07-22T23:37:26.518Z,381.37
2023-07-22T23:39:54.593Z,343.57
2023-07-22T23:42:24.065Z,367.40
2023-07-22T23:44:52.106Z,353.07
2023-07-22T23:47:20.236Z,364.13
2023-07-22T23:49:48.327Z,333.40
2023-07-22T23:52:16.415Z,359.47
2023-07-22T23:54:44.458Z,343.17
2023-07-22T23:57:12.516Z,370.80
2023-07-22T23:59:41.987Z,361.03
